sensor_id;sensor_type;location;lat;lon;timestamp;P1;durP1;ratioP1;P2;durP2;ratioP2
42754;SDS011;28407;51.830;5.684;2023-01-25T06:55:09;22.98;;;16.15;;
42754;SDS011;28407;51.830;5.684;2023-01-25T06:57:12;24.85;;;16.98;;
42754;SDS011;28407;51.830;5.684;2023-01-25T06:59:13;27.88;;;18.40;;
42754;SDS011;28407;51.830;5.684;2023-01-25T07:01:18;25.33;;;16.90;;
42754;SDS011;28407;51.830;5.684;2023-01-25T07:03:20;26.42;;;17.15;;
42754;SDS011;28407;51.830;5.684;2023-01-25T07:05:21;30.95;;;20.10;;
42754;SDS011;28407;51.830;5.684;2023-01-25T07:07:23;29.65;;;20.33;;
42754;SDS011;28407;51.830;5.684;2023-01-25T07:09:23;28.65;;;20.55;;
42754;SDS011;28407;51.830;5.684;2023-01-25T07:11:24;27.80;;;17.63;;
42754;SDS011;28407;51.830;5.684;2023-01-25T07:13:25;30.35;;;20.45;;
42754;SDS011;28407;51.830;5.684;2023-01-25T07:15:26;27.42;;;19.63;;
42754;SDS011;28407;51.830;5.684;2023-01-25T07:17:27;30.83;;;19.52;;
42754;SDS011;28407;51.830;5.684;2023-01-25T07:19:28;30.13;;;18.65;;
42754;SDS011;28407;51.830;5.684;2023-01-25T07:21:28;27.08;;;18.23;;
42754;SDS011;28407;51.830;5.684;2023-01-25T07:23:29;27.60;;;18.30;;
42754;SDS011;28407;51.830;5.684;2023-01-25T07:25:31;29.25;;;20.10;;
42754;SDS011;28407;51.830;5.684;2023-01-25T07:27:32;29.05;;;18.92;;
42754;SDS011;28407;51.830;5.684;2023-01-25T07:29:34;30.20;;;21.48;;
42754;SDS011;28407;51.830;5.684;2023-01-25T07:31:34;28.33;;;19.63;;
42754;SDS011;28407;51.830;5.684;2023-01-25T07:33:35;27.70;;;18.70;;
42754;SDS011;28407;51.830;5.684;2023-01-25T07:35:35;32.22;;;21.52;;
42754;SDS011;28407;51.830;5.684;2023-01-25T07:37:36;29.52;;;19.60;;
42754;SDS011;28407;51.830;5.684;2023-01-25T07:39:37;30.77;;;19.67;;
42754;SDS011;28407;51.830;5.684;2023-01-25T07:41:39;29.23;;;19.05;;
42754;SDS011;28407;51.830;5.684;2023-01-25T07:43:45;27.50;;;19.58;;
42754;SDS011;28407;51.830;5.684;2023-01-25T07:45:46;29.73;;;19.73;;
42754;SDS011;28407;51.830;5.684;2023-01-25T07:47:49;24.88;;;16.95;;
42754;SDS011;28407;51.830;5.684;2023-01-25T07:49:50;24.60;;;16.83;;
42754;SDS011;28407;51.830;5.684;2023-01-25T07:51:50;26.02;;;18.33;;
42754;SDS011;28407;51.830;5.684;2023-01-25T07:53:52;31.05;;;18.80;;
42754;SDS011;28407;51.830;5.684;2023-01-25T07:55:54;23.48;;;16.17;;
42754;SDS011;28407;51.830;5.684;2023-01-25T07:57:58;26.48;;;18.08;;
42754;SDS011;28407;51.830;5.684;2023-01-25T07:59:59;24.45;;;17.77;;
42754;SDS011;28407;51.830;5.684;2023-01-25T08:02:00;27.13;;;18.37;;
42754;SDS011;28407;51.830;5.684;2023-01-25T08:04:02;27.25;;;18.00;;
42754;SDS011;28407;51.830;5.684;2023-01-25T08:06:04;24.88;;;17.38;;
42754;SDS011;28407;51.830;5.684;2023-01-25T08:08:05;22.10;;;16.15;;
42754;SDS011;28407;51.830;5.684;2023-01-25T08:10:06;24.65;;;17.75;;
42754;SDS011;28407;51.830;5.684;2023-01-25T08:12:07;28.73;;;19.50;;
42754;SDS011;28407;51.830;5.684;2023-01-25T08:14:08;25.40;;;19.45;;
42754;SDS011;28407;51.830;5.684;2023-01-25T08:16:11;26.77;;;17.80;;
42754;SDS011;28407;51.830;5.684;2023-01-25T08:18:21;28.10;;;18.35;;
42754;SDS011;28407;51.830;5.684;2023-01-25T08:20:22;27.40;;;18.27;;
42754;SDS011;28407;51.830;5.684;2023-01-25T08:22:23;26.08;;;17.92;;
42754;SDS011;28407;51.830;5.684;2023-01-25T08:24:24;27.83;;;17.00;;
42754;SDS011;28407;51.830;5.684;2023-01-25T08:26:25;28.77;;;20.67;;
42754;SDS011;28407;51.830;5.684;2023-01-25T08:28:25;27.35;;;19.70;;
42754;SDS011;28407;51.830;5.684;2023-01-25T08:30:26;27.30;;;18.25;;
42754;SDS011;28407;51.830;5.684;2023-01-25T08:32:27;26.58;;;18.17;;
42754;SDS011;28407;51.830;5.684;2023-01-25T08:34:27;26.13;;;18.60;;
42754;SDS011;28407;51.830;5.684;2023-01-25T08:36:30;28.92;;;19.40;;
42754;SDS011;28407;51.830;5.684;2023-01-25T08:38:31;24.98;;;17.52;;
42754;SDS011;28407;51.830;5.684;2023-01-25T08:40:31;26.48;;;18.30;;
42754;SDS011;28407;51.830;5.684;2023-01-25T08:42:32;25.92;;;18.30;;
42754;SDS011;28407;51.830;5.684;2023-01-25T08:44:33;27.45;;;18.13;;
42754;SDS011;28407;51.830;5.684;2023-01-25T08:46:33;32.42;;;20.88;;
42754;SDS011;28407;51.830;5.684;2023-01-25T08:48:34;28.58;;;19.17;;
42754;SDS011;28407;51.830;5.684;2023-01-25T08:50:34;26.00;;;19.67;;
42754;SDS011;28407;51.830;5.684;2023-01-25T08:52:35;23.90;;;17.00;;
42754;SDS011;28407;51.830;5.684;2023-01-25T08:54:36;26.38;;;17.40;;
42754;SDS011;28407;51.830;5.684;2023-01-25T08:56:37;25.20;;;19.05;;
42754;SDS011;28407;51.830;5.684;2023-01-25T08:58:42;26.20;;;16.83;;
42754;SDS011;28407;51.830;5.684;2023-01-25T09:00:47;27.00;;;18.38;;
42754;SDS011;28407;51.830;5.684;2023-01-25T09:02:48;27.60;;;18.90;;
42754;SDS011;28407;51.830;5.684;2023-01-25T09:04:48;27.25;;;18.95;;
42754;SDS011;28407;51.830;5.684;2023-01-25T09:06:49;25.85;;;18.63;;
42754;SDS011;28407;51.830;5.684;2023-01-25T09:08:49;24.33;;;16.90;;
42754;SDS011;28407;51.830;5.684;2023-01-25T09:10:50;29.35;;;22.52;;
42754;SDS011;28407;51.830;5.684;2023-01-25T09:12:51;26.35;;;18.90;;
42754;SDS011;28407;51.830;5.684;2023-01-25T09:14:51;27.15;;;19.15;;
42754;SDS011;28407;51.830;5.684;2023-01-25T09:16:52;28.45;;;19.40;;
42754;SDS011;28407;51.830;5.684;2023-01-25T09:18:53;25.50;;;16.63;;
42754;SDS011;28407;51.830;5.684;2023-01-25T09:20:55;31.15;;;21.23;;
42754;SDS011;28407;51.830;5.684;2023-01-25T09:22:56;27.58;;;17.95;;
42754;SDS011;28407;51.830;5.684;2023-01-25T09:24:56;24.92;;;18.10;;
42754;SDS011;28407;51.830;5.684;2023-01-25T09:26:57;27.55;;;19.55;;
42754;SDS011;28407;51.830;5.684;2023-01-25T09:28:57;27.67;;;19.15;;
42754;SDS011;28407;51.830;5.684;2023-01-25T09:30:59;25.38;;;17.42;;
42754;SDS011;28407;51.830;5.684;2023-01-25T09:33:29;24.75;;;16.83;;
42754;SDS011;28407;51.830;5.684;2023-01-25T09:35:31;24.73;;;16.25;;
42754;SDS011;28407;51.830;5.684;2023-01-25T09:37:34;25.48;;;17.48;;
42754;SDS011;28407;51.830;5.684;2023-01-25T09:39:35;25.13;;;16.70;;
42754;SDS011;28407;51.830;5.684;2023-01-25T09:41:41;22.27;;;16.02;;
42754;SDS011;28407;51.830;5.684;2023-01-25T09:48:41;28.17;;;19.05;;
42754;SDS011;28407;51.830;5.684;2023-01-25T09:51:09;28.65;;;18.50;;
42754;SDS011;28407;51.830;5.684;2023-01-25T09:54:06;28.02;;;19.50;;
42754;SDS011;28407;51.830;5.684;2023-01-25T09:55:50;27.48;;;19.13;;
42754;SDS011;28407;51.830;5.684;2023-01-25T09:57:58;26.77;;;19.05;;
42754;SDS011;28407;51.830;5.684;2023-01-25T10:00:14;28.90;;;19.27;;
42754;SDS011;28407;51.830;5.684;2023-01-25T10:04:39;26.80;;;18.35;;
42754;SDS011;28407;51.830;5.684;2023-01-25T10:06:43;28.52;;;18.95;;
42754;SDS011;28407;51.830;5.684;2023-01-25T10:10:59;28.35;;;19.38;;
42754;SDS011;28407;51.830;5.684;2023-01-25T10:13:15;28.25;;;19.60;;
42754;SDS011;28407;51.830;5.684;2023-01-25T10:15:22;26.45;;;18.00;;
42754;SDS011;28407;51.830;5.684;2023-01-25T10:17:33;26.50;;;18.85;;
42754;SDS011;28407;51.830;5.684;2023-01-25T10:19:40;28.30;;;18.42;;
42754;SDS011;28407;51.830;5.684;2023-01-25T10:21:59;28.40;;;19.02;;
42754;SDS011;28407;51.830;5.684;2023-01-25T10:26:25;25.85;;;17.80;;
42754;SDS011;28407;51.830;5.684;2023-01-25T10:30:46;26.33;;;17.73;;
42754;SDS011;28407;51.830;5.684;2023-01-25T10:32:59;28.10;;;19.42;;
42754;SDS011;28407;51.830;5.684;2023-01-25T10:35:11;29.83;;;19.63;;
42754;SDS011;28407;51.830;5.684;2023-01-25T10:37:21;26.50;;;17.13;;
42754;SDS011;28407;51.830;5.684;2023-01-25T10:39:28;26.88;;;18.63;;
42754;SDS011;28407;51.830;5.684;2023-01-25T10:43:42;26.80;;;19.20;;
42754;SDS011;28407;51.830;5.684;2023-01-25T10:45:43;27.30;;;19.10;;
42754;SDS011;28407;51.830;5.684;2023-01-25T10:47:49;30.08;;;20.23;;
42754;SDS011;28407;51.830;5.684;2023-01-25T10:50:05;27.60;;;18.02;;
42754;SDS011;28407;51.830;5.684;2023-01-25T10:52:17;29.87;;;19.63;;
42754;SDS011;28407;51.830;5.684;2023-01-25T10:54:20;30.00;;;19.45;;
42754;SDS011;28407;51.830;5.684;2023-01-25T10:58:32;26.95;;;17.98;;
42754;SDS011;28407;51.830;5.684;2023-01-25T11:00:35;28.40;;;18.52;;
42754;SDS011;28407;51.830;5.684;2023-01-25T11:04:46;26.70;;;20.67;;
42754;SDS011;28407;51.830;5.684;2023-01-25T11:06:47;31.10;;;20.20;;
42754;SDS011;28407;51.830;5.684;2023-01-25T11:08:50;30.33;;;19.10;;
42754;SDS011;28407;51.830;5.684;2023-01-25T11:10:51;33.47;;;22.05;;
42754;SDS011;28407;51.830;5.684;2023-01-25T11:17:23;30.13;;;18.42;;
42754;SDS011;28407;51.830;5.684;2023-01-25T11:19:38;30.73;;;20.35;;
42754;SDS011;28407;51.830;5.684;2023-01-25T11:21:49;31.88;;;19.23;;
42754;SDS011;28407;51.830;5.684;2023-01-25T11:28:16;28.95;;;21.23;;
42754;SDS011;28407;51.830;5.684;2023-01-25T11:30:22;30.85;;;19.48;;
42754;SDS011;28407;51.830;5.684;2023-01-25T11:32:22;30.95;;;20.60;;
42754;SDS011;28407;51.830;5.684;2023-01-25T11:34:24;31.77;;;21.33;;
42754;SDS011;28407;51.830;5.684;2023-01-25T11:38:36;32.60;;;20.65;;
42754;SDS011;28407;51.830;5.684;2023-01-25T11:45:15;30.13;;;19.33;;
42754;SDS011;28407;51.830;5.684;2023-01-25T11:47:59;27.42;;;17.58;;
42754;SDS011;28407;51.830;5.684;2023-01-25T11:50:18;26.60;;;17.48;;
42754;SDS011;28407;51.830;5.684;2023-01-25T11:54:33;25.45;;;17.58;;
42754;SDS011;28407;51.830;5.684;2023-01-25T11:57:01;29.00;;;18.60;;
42754;SDS011;28407;51.830;5.684;2023-01-25T12:09:02;29.27;;;20.08;;
42754;SDS011;28407;51.830;5.684;2023-01-25T12:11:23;32.03;;;21.08;;
42754;SDS011;28407;51.830;5.684;2023-01-25T12:13:52;33.58;;;21.52;;
42754;SDS011;28407;51.830;5.684;2023-01-25T12:22:19;28.30;;;18.67;;
42754;SDS011;28407;51.830;5.684;2023-01-25T12:31:25;32.55;;;20.85;;
42754;SDS011;28407;51.830;5.684;2023-01-25T12:35:39;30.65;;;19.75;;
42754;SDS011;28407;51.830;5.684;2023-01-25T12:38:14;30.55;;;19.60;;
42754;SDS011;28407;51.830;5.684;2023-01-25T12:40:31;34.95;;;22.17;;
42754;SDS011;28407;51.830;5.684;2023-01-25T12:42:41;33.80;;;22.13;;
42754;SDS011;28407;51.830;5.684;2023-01-25T12:44:51;29.30;;;18.20;;
42754;SDS011;28407;51.830;5.684;2023-01-25T12:49:05;33.22;;;19.17;;
42754;SDS011;28407;51.830;5.684;2023-01-25T12:51:21;28.77;;;18.85;;
42754;SDS011;28407;51.830;5.684;2023-01-25T12:55:35;33.92;;;19.95;;
42754;SDS011;28407;51.830;5.684;2023-01-25T12:59:59;30.90;;;20.03;;
42754;SDS011;28407;51.830;5.684;2023-01-25T13:02:23;34.90;;;21.73;;
42754;SDS011;28407;51.830;5.684;2023-01-25T13:04:52;35.58;;;22.67;;
42754;SDS011;28407;51.830;5.684;2023-01-25T13:07:02;36.42;;;23.88;;
42754;SDS011;28407;51.830;5.684;2023-01-25T13:11:33;35.17;;;20.33;;
42754;SDS011;28407;51.830;5.684;2023-01-25T13:13:39;36.85;;;23.38;;
42754;SDS011;28407;51.830;5.684;2023-01-25T13:15:41;35.85;;;26.13;;
42754;SDS011;28407;51.830;5.684;2023-01-25T13:17:45;38.08;;;23.55;;
42754;SDS011;28407;51.830;5.684;2023-01-25T13:19:46;38.47;;;24.58;;
42754;SDS011;28407;51.830;5.684;2023-01-25T13:21:48;39.40;;;24.40;;
42754;SDS011;28407;51.830;5.684;2023-01-25T13:24:06;44.22;;;25.45;;
42754;SDS011;28407;51.830;5.684;2023-01-25T13:28:41;40.95;;;25.13;;
42754;SDS011;28407;51.830;5.684;2023-01-25T13:30:50;44.13;;;27.20;;
42754;SDS011;28407;51.830;5.684;2023-01-25T13:32:53;45.75;;;26.63;;
42754;SDS011;28407;51.830;5.684;2023-01-25T13:35:01;41.42;;;25.80;;
42754;SDS011;28407;51.830;5.684;2023-01-25T13:37:04;44.90;;;26.77;;
42754;SDS011;28407;51.830;5.684;2023-01-25T13:41:23;47.13;;;27.95;;
42754;SDS011;28407;51.830;5.684;2023-01-25T13:43:24;39.92;;;23.48;;
42754;SDS011;28407;51.830;5.684;2023-01-25T13:45:24;41.88;;;27.10;;
42754;SDS011;28407;51.830;5.684;2023-01-25T13:47:27;44.35;;;26.77;;
42754;SDS011;28407;51.830;5.684;2023-01-25T13:49:35;41.53;;;24.60;;
42754;SDS011;28407;51.830;5.684;2023-01-25T13:51:39;43.08;;;26.40;;
42754;SDS011;28407;51.830;5.684;2023-01-25T13:53:41;39.97;;;24.77;;
42754;SDS011;28407;51.830;5.684;2023-01-25T13:55:54;42.50;;;26.70;;
42754;SDS011;28407;51.830;5.684;2023-01-25T13:58:09;39.63;;;22.63;;
42754;SDS011;28407;51.830;5.684;2023-01-25T14:00:19;42.90;;;26.00;;
42754;SDS011;28407;51.830;5.684;2023-01-25T14:02:22;35.67;;;23.60;;
42754;SDS011;28407;51.830;5.684;2023-01-25T14:04:24;42.67;;;22.05;;
42754;SDS011;28407;51.830;5.684;2023-01-25T14:06:28;37.78;;;23.63;;
42754;SDS011;28407;51.830;5.684;2023-01-25T14:08:32;38.95;;;24.17;;
42754;SDS011;28407;51.830;5.684;2023-01-25T14:10:33;36.75;;;24.17;;
42754;SDS011;28407;51.830;5.684;2023-01-25T14:12:35;38.10;;;23.98;;
42754;SDS011;28407;51.830;5.684;2023-01-25T14:14:41;36.35;;;22.95;;
42754;SDS011;28407;51.830;5.684;2023-01-25T14:16:41;42.10;;;24.20;;
42754;SDS011;28407;51.830;5.684;2023-01-25T14:18:42;43.80;;;25.80;;
42754;SDS011;28407;51.830;5.684;2023-01-25T14:20:44;45.72;;;27.30;;
42754;SDS011;28407;51.830;5.684;2023-01-25T14:22:47;43.25;;;26.35;;
42754;SDS011;28407;51.830;5.684;2023-01-25T14:25:05;41.45;;;25.35;;
42754;SDS011;28407;51.830;5.684;2023-01-25T14:27:16;35.33;;;21.35;;
42754;SDS011;28407;51.830;5.684;2023-01-25T14:29:21;37.80;;;21.02;;
42754;SDS011;28407;51.830;5.684;2023-01-25T14:31:26;36.80;;;22.52;;
42754;SDS011;28407;51.830;5.684;2023-01-25T14:33:31;40.58;;;24.15;;
42754;SDS011;28407;51.830;5.684;2023-01-25T14:35:40;41.22;;;23.70;;
42754;SDS011;28407;51.830;5.684;2023-01-25T14:37:42;40.05;;;23.20;;
42754;SDS011;28407;51.830;5.684;2023-01-25T14:39:42;39.92;;;24.10;;
42754;SDS011;28407;51.830;5.684;2023-01-25T14:41:44;38.53;;;21.85;;
42754;SDS011;28407;51.830;5.684;2023-01-25T14:43:57;41.47;;;24.52;;
42754;SDS011;28407;51.830;5.684;2023-01-25T14:46:16;43.75;;;25.33;;
42754;SDS011;28407;51.830;5.684;2023-01-25T14:50:41;38.33;;;23.15;;
42754;SDS011;28407;51.830;5.684;2023-01-25T14:52:41;35.25;;;22.55;;
42754;SDS011;28407;51.830;5.684;2023-01-25T14:54:49;40.08;;;23.38;;
42754;SDS011;28407;51.830;5.684;2023-01-25T14:56:57;38.15;;;21.40;;
42754;SDS011;28407;51.830;5.684;2023-01-25T14:59:01;39.90;;;24.38;;
42754;SDS011;28407;51.830;5.684;2023-01-25T15:01:19;39.03;;;22.65;;
42754;SDS011;28407;51.830;5.684;2023-01-25T15:03:28;41.60;;;24.70;;
42754;SDS011;28407;51.830;5.684;2023-01-25T15:05:33;48.88;;;31.38;;
42754;SDS011;28407;51.830;5.684;2023-01-25T15:07:43;47.42;;;26.50;;
42754;SDS011;28407;51.830;5.684;2023-01-25T15:10:00;45.22;;;24.58;;
42754;SDS011;28407;51.830;5.684;2023-01-25T15:14:27;42.22;;;25.90;;
42754;SDS011;28407;51.830;5.684;2023-01-25T15:16:31;42.53;;;25.33;;
42754;SDS011;28407;51.830;5.684;2023-01-25T15:18:42;41.13;;;25.17;;
42754;SDS011;28407;51.830;5.684;2023-01-25T15:20:50;41.60;;;22.38;;
42754;SDS011;28407;51.830;5.684;2023-01-25T15:22:51;45.53;;;24.65;;
42754;SDS011;28407;51.830;5.684;2023-01-25T15:24:51;42.13;;;24.25;;
42754;SDS011;28407;51.830;5.684;2023-01-25T15:26:53;43.70;;;25.63;;
42754;SDS011;28407;51.830;5.684;2023-01-25T15:28:55;42.35;;;25.35;;
42754;SDS011;28407;51.830;5.684;2023-01-25T15:30:57;40.90;;;24.20;;
42754;SDS011;28407;51.830;5.684;2023-01-25T15:32:58;42.72;;;24.48;;
42754;SDS011;28407;51.830;5.684;2023-01-25T15:35:00;40.03;;;24.58;;
42754;SDS011;28407;51.830;5.684;2023-01-25T15:37:01;41.20;;;25.98;;
42754;SDS011;28407;51.830;5.684;2023-01-25T15:39:02;41.88;;;23.67;;
42754;SDS011;28407;51.830;5.684;2023-01-25T15:41:02;44.88;;;26.67;;
42754;SDS011;28407;51.830;5.684;2023-01-25T15:43:03;42.72;;;26.10;;
42754;SDS011;28407;51.830;5.684;2023-01-25T15:45:04;44.63;;;26.02;;
42754;SDS011;28407;51.830;5.684;2023-01-25T15:47:08;42.33;;;24.92;;
42754;SDS011;28407;51.830;5.684;2023-01-25T15:49:12;43.70;;;27.20;;
42754;SDS011;28407;51.830;5.684;2023-01-25T15:51:17;42.38;;;24.02;;
42754;SDS011;28407;51.830;5.684;2023-01-25T15:53:18;41.07;;;23.80;;
42754;SDS011;28407;51.830;5.684;2023-01-25T15:55:19;39.83;;;24.33;;
42754;SDS011;28407;51.830;5.684;2023-01-25T15:57:27;44.83;;;24.13;;
42754;SDS011;28407;51.830;5.684;2023-01-25T15:59:30;45.38;;;26.23;;
42754;SDS011;28407;51.830;5.684;2023-01-25T16:01:31;41.60;;;24.50;;
42754;SDS011;28407;51.830;5.684;2023-01-25T16:03:31;50.25;;;26.13;;
42754;SDS011;28407;51.830;5.684;2023-01-25T16:05:32;44.45;;;27.15;;
42754;SDS011;28407;51.830;5.684;2023-01-25T16:07:33;46.63;;;25.67;;
42754;SDS011;28407;51.830;5.684;2023-01-25T16:09:36;48.08;;;26.35;;
42754;SDS011;28407;51.830;5.684;2023-01-25T16:11:37;41.70;;;25.02;;
42754;SDS011;28407;51.830;5.684;2023-01-25T16:13:38;45.25;;;25.83;;
42754;SDS011;28407;51.830;5.684;2023-01-25T16:15:40;48.25;;;27.65;;
42754;SDS011;28407;51.830;5.684;2023-01-25T16:17:41;44.55;;;26.20;;
42754;SDS011;28407;51.830;5.684;2023-01-25T16:19:42;48.53;;;26.80;;
42754;SDS011;28407;51.830;5.684;2023-01-25T16:21:46;47.03;;;25.42;;
42754;SDS011;28407;51.830;5.684;2023-01-25T16:23:47;48.90;;;27.77;;
42754;SDS011;28407;51.830;5.684;2023-01-25T16:25:48;44.13;;;27.45;;
42754;SDS011;28407;51.830;5.684;2023-01-25T16:27:48;46.70;;;27.13;;
42754;SDS011;28407;51.830;5.684;2023-01-25T16:29:49;45.25;;;27.05;;
42754;SDS011;28407;51.830;5.684;2023-01-25T16:31:53;45.00;;;26.67;;
42754;SDS011;28407;51.830;5.684;2023-01-25T16:33:54;45.00;;;25.40;;
42754;SDS011;28407;51.830;5.684;2023-01-25T16:36:02;47.00;;;26.90;;
42754;SDS011;28407;51.830;5.684;2023-01-25T16:38:09;47.97;;;27.80;;
42754;SDS011;28407;51.830;5.684;2023-01-25T16:40:18;46.75;;;28.70;;
42754;SDS011;28407;51.830;5.684;2023-01-25T16:42:22;35.72;;;21.08;;
42754;SDS011;28407;51.830;5.684;2023-01-25T16:44:22;41.95;;;24.48;;
42754;SDS011;28407;51.830;5.684;2023-01-25T16:46:23;50.35;;;27.83;;
42754;SDS011;28407;51.830;5.684;2023-01-25T16:48:24;43.75;;;26.00;;
42754;SDS011;28407;51.830;5.684;2023-01-25T16:50:24;41.70;;;21.38;;
42754;SDS011;28407;51.830;5.684;2023-01-25T16:52:25;43.75;;;26.35;;
42754;SDS011;28407;51.830;5.684;2023-01-25T16:54:26;43.33;;;25.50;;
42754;SDS011;28407;51.830;5.684;2023-01-25T16:56:28;50.72;;;26.83;;
42754;SDS011;28407;51.830;5.684;2023-01-25T16:58:30;43.63;;;26.05;;
42754;SDS011;28407;51.830;5.684;2023-01-25T17:00:31;47.17;;;24.90;;
42754;SDS011;28407;51.830;5.684;2023-01-25T17:02:31;42.20;;;23.83;;
42754;SDS011;28407;51.830;5.684;2023-01-25T17:04:32;42.53;;;24.13;;
42754;SDS011;28407;51.830;5.684;2023-01-25T17:06:33;41.63;;;23.85;;
42754;SDS011;28407;51.830;5.684;2023-01-25T17:08:35;42.92;;;23.27;;
42754;SDS011;28407;51.830;5.684;2023-01-25T17:10:36;38.63;;;22.90;;
42754;SDS011;28407;51.830;5.684;2023-01-25T17:12:38;40.28;;;23.25;;
42754;SDS011;28407;51.830;5.684;2023-01-25T17:14:38;38.42;;;21.88;;
42754;SDS011;28407;51.830;5.684;2023-01-25T17:16:40;41.38;;;24.75;;
42754;SDS011;28407;51.830;5.684;2023-01-25T17:18:40;38.00;;;21.55;;
42754;SDS011;28407;51.830;5.684;2023-01-25T17:20:41;44.75;;;22.65;;
42754;SDS011;28407;51.830;5.684;2023-01-25T17:22:42;29.30;;;17.92;;
42754;SDS011;28407;51.830;5.684;2023-01-25T17:24:48;45.90;;;23.50;;
42754;SDS011;28407;51.830;5.684;2023-01-25T17:26:49;42.20;;;24.70;;
42754;SDS011;28407;51.830;5.684;2023-01-25T17:28:50;45.67;;;26.52;;
42754;SDS011;28407;51.830;5.684;2023-01-25T17:30:53;39.80;;;22.33;;
42754;SDS011;28407;51.830;5.684;2023-01-25T17:32:54;41.67;;;25.23;;
42754;SDS011;28407;51.830;5.684;2023-01-25T17:34:54;41.90;;;23.40;;
42754;SDS011;28407;51.830;5.684;2023-01-25T17:36:58;42.17;;;22.13;;
42754;SDS011;28407;51.830;5.684;2023-01-25T17:39:02;41.78;;;22.50;;
42754;SDS011;28407;51.830;5.684;2023-01-25T17:41:08;38.08;;;22.92;;
42754;SDS011;28407;51.830;5.684;2023-01-25T17:43:10;40.33;;;23.67;;
42754;SDS011;28407;51.830;5.684;2023-01-25T17:45:11;38.35;;;23.92;;
42754;SDS011;28407;51.830;5.684;2023-01-25T17:47:11;35.15;;;21.23;;
42754;SDS011;28407;51.830;5.684;2023-01-25T17:49:13;38.25;;;21.35;;
42754;SDS011;28407;51.830;5.684;2023-01-25T17:51:16;37.15;;;21.40;;
42754;SDS011;28407;51.830;5.684;2023-01-25T17:53:16;39.33;;;22.92;;
42754;SDS011;28407;51.830;5.684;2023-01-25T17:55:17;43.67;;;25.65;;
42754;SDS011;28407;51.830;5.684;2023-01-25T17:57:17;39.42;;;22.65;;
42754;SDS011;28407;51.830;5.684;2023-01-25T17:59:22;40.58;;;22.50;;
42754;SDS011;28407;51.830;5.684;2023-01-25T18:01:24;45.38;;;26.00;;
42754;SDS011;28407;51.830;5.684;2023-01-25T18:03:27;41.22;;;23.15;;
42754;SDS011;28407;51.830;5.684;2023-01-25T18:05:28;41.03;;;22.85;;
42754;SDS011;28407;51.830;5.684;2023-01-25T18:07:29;39.08;;;23.98;;
42754;SDS011;28407;51.830;5.684;2023-01-25T18:09:30;34.33;;;17.45;;
42754;SDS011;28407;51.830;5.684;2023-01-25T18:11:33;39.83;;;22.77;;
42754;SDS011;28407;51.830;5.684;2023-01-25T18:13:41;40.08;;;22.55;;
42754;SDS011;28407;51.830;5.684;2023-01-25T18:15:43;37.85;;;22.88;;
42754;SDS011;28407;51.830;5.684;2023-01-25T18:17:52;41.92;;;23.85;;
42754;SDS011;28407;51.830;5.684;2023-01-25T18:19:55;37.58;;;23.60;;
42754;SDS011;28407;51.830;5.684;2023-01-25T18:21:56;38.17;;;21.23;;
42754;SDS011;28407;51.830;5.684;2023-01-25T18:23:57;39.78;;;22.05;;
42754;SDS011;28407;51.830;5.684;2023-01-25T18:26:24;39.00;;;22.75;;
42754;SDS011;28407;51.830;5.684;2023-01-25T18:28:26;35.88;;;19.35;;
42754;SDS011;28407;51.830;5.684;2023-01-25T18:30:29;34.38;;;18.63;;
42754;SDS011;28407;51.830;5.684;2023-01-25T18:32:37;39.25;;;22.48;;
42754;SDS011;28407;51.830;5.684;2023-01-25T18:34:38;36.53;;;21.05;;
42754;SDS011;28407;51.830;5.684;2023-01-25T18:36:38;41.63;;;24.92;;
42754;SDS011;28407;51.830;5.684;2023-01-25T18:38:39;32.03;;;19.77;;
42754;SDS011;28407;51.830;5.684;2023-01-25T18:40:39;36.33;;;20.08;;
42754;SDS011;28407;51.830;5.684;2023-01-25T18:42:42;38.08;;;20.90;;
42754;SDS011;28407;51.830;5.684;2023-01-25T18:44:44;37.90;;;22.05;;
42754;SDS011;28407;51.830;5.684;2023-01-25T18:46:47;41.90;;;21.10;;
42754;SDS011;28407;51.830;5.684;2023-01-25T18:48:48;35.75;;;21.42;;
42754;SDS011;28407;51.830;5.684;2023-01-25T18:50:49;37.47;;;21.00;;
42754;SDS011;28407;51.830;5.684;2023-01-25T18:52:50;40.78;;;21.30;;
42754;SDS011;28407;51.830;5.684;2023-01-25T18:54:51;48.70;;;25.73;;
42754;SDS011;28407;51.830;5.684;2023-01-25T18:56:52;35.22;;;20.02;;
42754;SDS011;28407;51.830;5.684;2023-01-25T18:58:54;46.50;;;23.70;;
42754;SDS011;28407;51.830;5.684;2023-01-25T19:01:00;45.90;;;22.17;;
42754;SDS011;28407;51.830;5.684;2023-01-25T19:03:07;49.70;;;23.52;;
42754;SDS011;28407;51.830;5.684;2023-01-25T19:05:08;46.47;;;25.63;;
42754;SDS011;28407;51.830;5.684;2023-01-25T19:07:09;43.33;;;22.38;;
42754;SDS011;28407;51.830;5.684;2023-01-25T19:09:09;45.78;;;23.42;;
42754;SDS011;28407;51.830;5.684;2023-01-25T19:11:11;52.30;;;25.83;;
42754;SDS011;28407;51.830;5.684;2023-01-25T19:13:15;48.25;;;26.27;;
42754;SDS011;28407;51.830;5.684;2023-01-25T19:15:16;51.65;;;28.15;;
42754;SDS011;28407;51.830;5.684;2023-01-25T19:17:17;54.45;;;27.40;;
42754;SDS011;28407;51.830;5.684;2023-01-25T19:19:17;50.97;;;27.38;;
42754;SDS011;28407;51.830;5.684;2023-01-25T19:21:20;69.00;;;36.75;;
42754;SDS011;28407;51.830;5.684;2023-01-25T19:23:24;65.03;;;30.42;;
42754;SDS011;28407;51.830;5.684;2023-01-25T19:25:25;61.47;;;34.60;;
42754;SDS011;28407;51.830;5.684;2023-01-25T19:27:25;54.63;;;30.00;;
42754;SDS011;28407;51.830;5.684;2023-01-25T19:29:28;52.35;;;27.75;;
42754;SDS011;28407;51.830;5.684;2023-01-25T19:31:28;55.40;;;27.65;;
42754;SDS011;28407;51.830;5.684;2023-01-25T19:33:32;53.97;;;26.27;;
42754;SDS011;28407;51.830;5.684;2023-01-25T19:35:33;51.00;;;28.53;;
42754;SDS011;28407;51.830;5.684;2023-01-25T19:37:33;56.17;;;30.10;;
42754;SDS011;28407;51.830;5.684;2023-01-25T19:39:34;54.33;;;29.00;;
42754;SDS011;28407;51.830;5.684;2023-01-25T19:41:35;57.13;;;30.10;;
42754;SDS011;28407;51.830;5.684;2023-01-25T19:43:38;56.00;;;29.73;;
42754;SDS011;28407;51.830;5.684;2023-01-25T19:45:42;59.75;;;30.30;;
42754;SDS011;28407;51.830;5.684;2023-01-25T19:47:43;57.80;;;28.65;;
42754;SDS011;28407;51.830;5.684;2023-01-25T19:49:43;56.08;;;29.63;;
42754;SDS011;28407;51.830;5.684;2023-01-25T19:51:44;68.75;;;31.00;;
42754;SDS011;28407;51.830;5.684;2023-01-25T19:53:58;58.47;;;28.65;;
42754;SDS011;28407;51.830;5.684;2023-01-25T19:56:05;57.75;;;28.98;;
42754;SDS011;28407;51.830;5.684;2023-01-25T19:58:07;59.35;;;28.42;;
42754;SDS011;28407;51.830;5.684;2023-01-25T20:00:08;57.72;;;29.33;;
42754;SDS011;28407;51.830;5.684;2023-01-25T20:02:10;60.95;;;32.17;;
42754;SDS011;28407;51.830;5.684;2023-01-25T20:04:12;60.63;;;32.08;;
42754;SDS011;28407;51.830;5.684;2023-01-25T20:06:15;50.55;;;26.95;;
42754;SDS011;28407;51.830;5.684;2023-01-25T20:08:17;59.67;;;30.27;;
42754;SDS011;28407;51.830;5.684;2023-01-25T20:10:17;58.08;;;27.88;;
42754;SDS011;28407;51.830;5.684;2023-01-25T20:12:18;59.35;;;29.70;;
42754;SDS011;28407;51.830;5.684;2023-01-25T20:14:19;61.78;;;30.23;;
42754;SDS011;28407;51.830;5.684;2023-01-25T20:16:19;67.78;;;35.42;;
42754;SDS011;28407;51.830;5.684;2023-01-25T20:18:20;58.55;;;30.30;;
42754;SDS011;28407;51.830;5.684;2023-01-25T20:20:21;58.85;;;26.48;;
42754;SDS011;28407;51.830;5.684;2023-01-25T20:22:22;61.53;;;29.67;;